Time Latitude Longitude Accuracy (66% radius in meters) Altitude (meters) Speed (km/hour) Bearing (degrees) Battery (%) GPS flag
08:05:18 57.204618 60.121766 13.65299987793 331 0 0 46 1 delete
08:05:08 57.204618 60.121766 13.65299987793 331 0 0 46 1 delete
08:04:57 57.204618 60.121766 15.170000076294 331 0 0 46 1 delete
08:04:47 57.204618 60.121767 15.170000076294 331 0 0 46 1 delete
08:04:37 57.204618 60.121767 15.170000076294 331 0 0 46 1 delete
08:04:26 57.204618 60.121767 15.170000076294 331 0 0 46 1 delete
08:04:15 57.204618 60.121767 15.170000076294 331 0 0 46 1 delete
08:04:05 57.204618 60.121766 15.170000076294 331 0 0 46 1 delete
08:03:55 57.204618 60.121766 13.65299987793 331 0 0 46 1 delete
08:03:45 57.204618 60.121766 13.65299987793 331 0 0 46 1 delete
08:03:34 57.204618 60.121766 15.170000076294 331 0 0 46 1 delete
08:03:23 57.204618 60.121766 15.170000076294 331 0 0 46 1 delete
08:03:13 57.204618 60.121766 15.170000076294 331 0 0 46 1 delete
08:03:03 57.204618 60.121766 15.170000076294 331 0 0 46 1 delete
08:02:58 57.204620 60.121767 15.170000076294 331 0 0 46 1 delete
08:02:52 57.204681 60.121767 15.170000076294 331 0.18000000715256 305.89999389648 46 1 delete
08:02:31 57.204645 60.121766 24.271999359131 324 0 0 46 1 delete
08:02:21 57.204644 60.121767 21.237998962402 324 0 0 46 1 delete
08:02:10 57.204644 60.121767 21.237998962402 324 0 0 46 1 delete
08:02:00 57.204644 60.121767 19.720998764038 324 0 0 46 1 delete
08:01:49 57.204644 60.121767 18.203998565674 324 0 0 48 1 delete
08:01:39 57.204644 60.121767 18.203998565674 324 0 0 48 1 delete
08:01:28 57.204644 60.121767 18.203998565674 324 0 0 48 1 delete
08:01:16 57.204644 60.121766 16.687000274658 324 0 0 48 1 delete
08:01:05 57.204650 60.121762 15.170000076294 324 0 0 48 1 delete
08:00:59 57.204684 60.121648 15.170000076294 324 0.15000000596046 166.39999389648 48 1 delete
08:00:55 57.204716 60.121522 19.720998764038 326 0 0 48 1 delete
08:00:44 57.204720 60.121480 30.340000152588 326 0 0 48 1 delete
08:00:33 57.204720 60.121480 28.822999954224 326 0 0 48 1 delete
08:00:23 57.204717 60.121484 24.271999359131 326 0 0 48 1 delete
08:00:22 57.204716 60.121484 24.271999359131 326 0 0 48 1 delete
08:00:17 57.204808 60.121471 21.237998962402 326 2.5499999523163 198.5 48 1 delete
08:00:13 57.204860 60.121586 19.720998764038 326 2.5199999809265 258.39999389648 48 1 delete
08:00:02 57.204870 60.121649 18.203998565674 326 0 0 48 1 delete
07:59:52 57.204870 60.121649 21.237998962402 326 0 0 48 1 delete
07:59:41 57.204852 60.121630 30.340000152588 326 1.5299999713898 23.799999237061 48 1 delete
07:59:36 57.204764 60.121527 19.720998764038 326 2.5099999904633 1.1000000238419 48 1 delete
07:59:31 57.204648 60.121559 21.237998962402 326 2.5199999809265 278.39999389648 48 1 delete
07:59:28 57.204699 60.121648 18.203998565674 326 2.5099999904633 205.80000305176 48 1 delete
07:59:22 57.204790 60.121564 15.170000076294 327 1.0199999809265 145.60000610352 48 1 delete
07:59:20 57.204825 60.121584 15.170000076294 327 2.5599999427795 184.30000305176 48 1 delete
07:59:10 57.204884 60.121555 13.65299987793 324 0 0 48 1 delete
07:59:00 57.204881 60.121551 13.65299987793 324 0 0 48 1 delete
07:58:49 57.204884 60.121546 13.65299987793 324 0 0 48 1 delete
07:58:39 57.204894 60.121560 13.65299987793 325 0.41999998688698 78.800003051758 48 1 delete
07:58:35 57.204887 60.121545 13.65299987793 325 0 0 48 1 delete
07:58:31 57.204838 60.121388 15.170000076294 325 0.58999997377396 52.400001525879 48 1 delete
07:58:28 57.204771 60.121251 15.170000076294 326 2.3499999046326 47.599998474121 48 1 delete
07:58:25 57.204710 60.121110 15.170000076294 326 2.2799999713898 44 48 1 delete
07:58:22 57.204648 60.120937 15.170000076294 325 2.2799999713898 46.700000762939 48 1 delete